createdAt,value
2023-02-01T00:01:00.272Z,6.22
2023-02-01T00:04:02.641Z,5.60
2023-02-01T00:07:04.855Z,5.07
2023-02-01T00:10:09.064Z,5.90
2023-02-01T00:13:11.151Z,6.65
2023-02-01T00:16:17.596Z,5.22
2023-02-01T00:19:19.811Z,6.10
2023-02-01T00:22:22.275Z,6.53
2023-02-01T00:25:27.505Z,6.05
2023-02-01T00:28:29.731Z,6.57
2023-02-01T00:31:32.370Z,5.63
2023-02-01T00:34:35.545Z,5.70
2023-02-01T00:37:41.018Z,5.57
2023-02-01T00:40:43.108Z,5.63
2023-02-01T00:43:46.606Z,6.40
2023-02-01T00:46:48.733Z,4.80
2023-02-01T00:49:50.747Z,5.68
2023-02-01T00:52:54.024Z,5.90
2023-02-01T00:55:56.164Z,5.03
2023-02-01T00:58:58.306Z,6.68
2023-02-01T01:02:00.573Z,4.97
2023-02-01T01:05:02.803Z,4.72
2023-02-01T01:08:04.915Z,5.55
2023-02-01T01:11:11.832Z,5.43
2023-02-01T01:14:14.848Z,5.60
2023-02-01T01:17:18.162Z,6.10
2023-02-01T01:20:23.415Z,5.68
2023-02-01T01:23:25.957Z,5.68
2023-02-01T01:26:30.103Z,6.22
2023-02-01T01:29:32.430Z,5.68
2023-02-01T01:32:34.649Z,6.60
2023-02-01T01:35:36.918Z,6.70
2023-02-01T01:38:41.724Z,6.45
2023-02-01T01:41:44.159Z,4.80
2023-02-01T01:45:04.861Z,7.30
2023-02-01T01:48:26.056Z,5.32
2023-02-01T01:51:30.156Z,5.60
2023-02-01T01:54:59.148Z,6.55
2023-02-01T01:58:06.705Z,5.68
2023-02-01T02:01:09.923Z,4.93
2023-02-01T02:04:12.672Z,4.80
2023-02-01T02:07:19.885Z,5.45
2023-02-01T02:10:22.488Z,5.72
2023-02-01T02:13:25.500Z,4.95
2023-02-01T02:16:58.105Z,6.25
2023-02-01T02:20:24.992Z,6.47
2023-02-01T02:23:35.391Z,4.95
2023-02-01T02:27:05.418Z,5.18
2023-02-01T02:30:31.844Z,4.95
2023-02-01T02:33:54.004Z,4.78
2023-02-01T02:37:33.986Z,4.30
2023-02-01T02:47:29.729Z,4.97
2023-02-01T02:51:11.080Z,4.80
2023-02-01T02:54:40.311Z,6.15
2023-02-01T02:58:03.686Z,4.85
2023-02-01T03:01:25.773Z,4.35
2023-02-01T03:04:29.615Z,5.32
2023-02-01T03:08:10.856Z,5.13
2023-02-01T03:11:16.696Z,5.47
2023-02-01T03:14:22.691Z,4.95
2023-02-01T03:17:34.171Z,4.80
2023-02-01T03:20:40.036Z,4.97
2023-02-01T03:23:44.040Z,5.35
2023-02-01T03:26:52.532Z,4.10
2023-02-01T03:30:01.091Z,5.85
2023-02-01T03:33:14.881Z,5.43
2023-02-01T03:36:41.146Z,5.93
2023-02-01T03:40:00.789Z,5.20
2023-02-01T03:43:08.352Z,5.15
2023-02-01T03:46:18.749Z,5.40
2023-02-01T03:49:31.809Z,5.85
2023-02-01T03:52:43.935Z,5.45
2023-02-01T03:55:47.557Z,4.97
2023-02-01T03:59:00.083Z,5.95
2023-02-01T04:02:06.482Z,5.93
2023-02-01T04:05:09.498Z,6.25
2023-02-01T04:08:12.780Z,6.15
2023-02-01T04:11:14.938Z,5.28
2023-02-01T04:14:17.020Z,5.15
2023-02-01T04:17:19.721Z,6.30
2023-02-01T04:20:22.083Z,5.13
2023-02-01T04:23:24.479Z,5.82
2023-02-01T04:26:26.573Z,5.60
2023-02-01T04:29:28.718Z,5.18
2023-02-01T04:32:30.919Z,5.53
2023-02-01T04:35:32.960Z,6.45
2023-02-01T04:38:35.005Z,5.28
2023-02-01T04:41:37.503Z,5.63
2023-02-01T04:44:42.941Z,5.82
2023-02-01T04:47:44.999Z,6.43
2023-02-01T04:50:49.310Z,6.35
2023-02-01T04:53:52.646Z,6.35
2023-02-01T04:56:54.840Z,7.20
2023-02-01T04:59:57.174Z,7.05
2023-02-01T05:02:59.246Z,6.57
2023-02-01T05:06:01.601Z,6.50
2023-02-01T05:09:03.874Z,7.47
2023-02-01T05:12:24.714Z,6.82
2023-02-01T05:15:26.923Z,6.30
2023-02-01T05:18:29.985Z,7.82
2023-02-01T05:21:42.032Z,7.18
2023-02-01T05:24:46.127Z,7.40
2023-02-01T05:27:48.226Z,8.25
2023-02-01T05:30:50.351Z,9.20
2023-02-01T05:33:52.515Z,8.40
2023-02-01T05:36:54.678Z,8.20
2023-02-01T05:39:56.687Z,7.85
2023-02-01T05:42:58.685Z,8.63
2023-02-01T05:46:00.949Z,8.40
2023-02-01T05:49:03.452Z,8.60
2023-02-01T05:52:05.889Z,8.90
2023-02-01T05:55:08.362Z,9.88
2023-02-01T05:58:10.460Z,9.25
2023-02-01T06:01:12.917Z,9.93
2023-02-01T06:04:14.987Z,9.35
2023-02-01T06:07:17.823Z,9.98
2023-02-01T06:10:20.966Z,9.90
2023-02-01T06:13:23.264Z,8.93
2023-02-01T06:16:25.819Z,8.38
2023-02-01T06:19:28.211Z,8.80
2023-02-01T06:22:30.447Z,9.02
2023-02-01T06:25:33.762Z,8.32
2023-02-01T06:28:35.867Z,8.15
2023-02-01T06:31:38.075Z,8.02
2023-02-01T06:34:40.813Z,9.32
2023-02-01T06:37:43.877Z,8.30
2023-02-01T06:40:46.189Z,9.32
2023-02-01T06:43:48.632Z,10.50
2023-02-01T06:46:50.837Z,8.55
2023-02-01T06:49:52.953Z,10.35
2023-02-01T06:52:56.646Z,10.18
2023-02-01T06:56:01.345Z,10.13
2023-02-01T06:59:07.061Z,11.90
2023-02-01T07:02:12.487Z,11.00
2023-02-01T07:05:14.796Z,12.57
2023-02-01T07:08:17.136Z,12.00
2023-02-01T07:11:20.389Z,11.90
2023-02-01T07:14:22.493Z,10.02
2023-02-01T07:17:24.846Z,10.32
2023-02-01T07:20:26.999Z,10.80
2023-02-01T07:23:29.827Z,10.88
2023-02-01T07:26:32.070Z,8.23
2023-02-01T07:29:34.228Z,7.18
2023-02-01T07:32:36.452Z,6.68
2023-02-01T07:35:38.530Z,6.85
2023-02-01T07:38:44.203Z,5.45
2023-02-01T07:41:47.595Z,5.20
2023-02-01T07:44:49.628Z,5.13
2023-02-01T07:47:53.562Z,4.80
2023-02-01T07:51:15.851Z,5.50
2023-02-01T07:54:18.015Z,5.65
2023-02-01T07:57:20.510Z,5.68
2023-02-01T08:00:41.431Z,6.93
2023-02-01T08:03:43.676Z,5.57
2023-02-01T08:06:46.006Z,5.25
2023-02-01T08:09:48.122Z,5.57
2023-02-01T08:12:50.411Z,5.97
2023-02-01T08:15:52.602Z,5.63
2023-02-01T08:18:55.384Z,5.75
2023-02-01T08:21:57.532Z,6.55
2023-02-01T08:25:02.413Z,5.50
2023-02-01T08:28:04.781Z,7.85
2023-02-01T08:31:11.107Z,6.13
2023-02-01T08:34:13.713Z,6.50
2023-02-01T08:37:15.714Z,6.35
2023-02-01T08:40:18.524Z,4.50
2023-02-01T08:43:20.739Z,3.97
2023-02-01T08:46:24.029Z,3.85
2023-02-01T08:49:26.251Z,3.55
2023-02-01T08:52:28.331Z,3.75
2023-02-01T08:55:30.477Z,3.63
2023-02-01T08:58:32.730Z,3.80
2023-02-01T09:01:34.914Z,3.65
2023-02-01T09:04:36.967Z,3.35
2023-02-01T09:07:39.136Z,3.58
2023-02-01T09:10:42.348Z,4.18
2023-02-01T09:13:46.200Z,3.55
2023-02-01T09:16:48.993Z,3.70
2023-02-01T09:19:51.262Z,2.90
2023-02-01T09:22:55.700Z,2.83
2023-02-01T09:26:04.399Z,3.55
2023-02-01T09:29:14.767Z,3.10
2023-02-01T09:32:17.140Z,3.35
2023-02-01T09:35:20.133Z,3.42
2023-02-01T09:38:22.297Z,3.75
2023-02-01T09:41:42.208Z,3.70
2023-02-01T09:45:02.834Z,4.10
2023-02-01T09:48:14.214Z,3.80
2023-02-01T09:51:25.239Z,3.60
2023-02-01T09:54:40.542Z,3.58
2023-02-01T09:57:55.519Z,3.95
2023-02-01T10:01:04.189Z,4.35
2023-02-01T10:04:11.551Z,4.50
2023-02-01T10:07:45.436Z,3.50
2023-02-01T10:10:50.276Z,3.45
2023-02-01T10:14:59.694Z,3.65
2023-02-01T10:18:20.394Z,3.78
2023-02-01T10:21:42.713Z,4.05
2023-02-01T10:25:14.314Z,3.03
2023-02-01T10:28:18.971Z,3.78
2023-02-01T10:31:25.686Z,3.53
2023-02-01T10:34:35.487Z,3.85
2023-02-01T10:37:37.659Z,4.05
2023-02-01T10:40:39.884Z,3.78
2023-02-01T10:43:43.440Z,3.08
2023-02-01T10:46:46.102Z,3.88
2023-02-01T10:50:03.082Z,4.10
2023-02-01T10:53:26.281Z,4.93
2023-02-01T10:56:29.676Z,4.05
2023-02-01T10:59:34.525Z,3.92
2023-02-01T11:02:37.044Z,3.40
2023-02-01T11:05:47.199Z,3.47
2023-02-01T11:08:55.092Z,4.30
2023-02-01T11:11:59.995Z,5.50
2023-02-01T11:15:23.618Z,4.07
2023-02-01T11:18:30.065Z,4.07
2023-02-01T11:21:33.758Z,4.35
2023-02-01T11:24:39.469Z,3.78
2023-02-01T11:27:53.207Z,3.95
2023-02-01T11:31:01.885Z,3.60
2023-02-01T11:34:17.907Z,4.53
2023-02-01T11:37:22.170Z,3.20
2023-02-01T11:40:36.336Z,4.05
2023-02-01T11:43:40.918Z,3.33
2023-02-01T11:46:43.080Z,3.88
2023-02-01T11:49:45.417Z,3.20
2023-02-01T11:53:11.044Z,3.42
2023-02-01T11:56:29.595Z,3.25
2023-02-01T12:00:02.425Z,4.30
2023-02-01T12:03:47.118Z,3.65
2023-02-01T12:07:00.742Z,4.88
2023-02-01T12:10:10.967Z,3.95
2023-02-01T12:13:44.180Z,3.60
2023-02-01T12:17:16.224Z,4.22
2023-02-01T12:20:50.889Z,5.28
2023-02-01T12:23:58.554Z,4.43
2023-02-01T12:27:30.606Z,4.03
2023-02-01T12:31:07.464Z,5.05
2023-02-01T12:34:22.993Z,4.28
2023-02-01T12:37:45.633Z,4.88
2023-02-01T12:41:07.011Z,4.57
2023-02-01T12:44:26.272Z,5.95
2023-02-01T12:48:05.934Z,4.32
2023-02-01T12:51:16.479Z,5.35
2023-02-01T12:54:56.989Z,4.88
2023-02-01T12:58:18.140Z,5.10
2023-02-01T13:01:30.079Z,4.43
2023-02-01T13:04:42.575Z,4.75
2023-02-01T13:07:57.736Z,5.30
2023-02-01T13:11:36.626Z,5.22
2023-02-01T13:14:55.128Z,5.03
2023-02-01T13:18:02.269Z,5.93
2023-02-01T13:21:17.600Z,6.15
2023-02-01T13:24:44.910Z,6.18
2023-02-01T13:27:47.726Z,5.18
2023-02-01T13:31:00.627Z,5.60
2023-02-01T13:34:39.758Z,4.97
2023-02-01T13:37:44.799Z,5.28
2023-02-01T13:41:07.297Z,4.75
2023-02-01T13:44:19.674Z,4.70
2023-02-01T13:47:32.621Z,5.45
2023-02-01T13:50:39.776Z,5.75
2023-02-01T13:53:49.550Z,5.60
2023-02-01T13:56:54.229Z,5.82
2023-02-01T14:00:08.570Z,5.93
2023-02-01T14:03:22.720Z,6.05
2023-02-01T14:06:28.394Z,6.25
2023-02-01T14:09:39.973Z,5.82
2023-02-01T14:12:49.408Z,6.00
2023-02-01T14:16:13.311Z,4.68
2023-02-01T14:19:40.980Z,6.32
2023-02-01T14:22:43.150Z,5.60
2023-02-01T14:25:46.570Z,7.30
2023-02-01T14:28:54.003Z,7.75
2023-02-01T14:32:08.118Z,6.93
2023-02-01T14:35:22.086Z,7.90
2023-02-01T14:38:24.658Z,7.18
2023-02-01T14:41:35.924Z,6.95
2023-02-01T14:44:38.352Z,8.70
2023-02-01T14:47:40.935Z,7.68
2023-02-01T14:50:48.049Z,6.75
2023-02-01T14:53:53.322Z,7.22
2023-02-01T14:56:56.498Z,8.38
2023-02-01T15:00:10.031Z,11.02
2023-02-01T15:03:17.890Z,8.98
2023-02-01T15:06:27.942Z,7.75
2023-02-01T15:09:32.772Z,8.85
2023-02-01T15:12:42.150Z,8.27
2023-02-01T15:15:46.274Z,9.70
2023-02-01T15:18:48.536Z,9.45
2023-02-01T15:21:53.585Z,9.20
2023-02-01T15:25:01.574Z,10.43
2023-02-01T15:28:04.288Z,9.73
2023-02-01T15:31:06.904Z,10.35
2023-02-01T15:34:10.767Z,10.35
2023-02-01T15:37:19.773Z,9.77
2023-02-01T15:40:25.608Z,11.00
2023-02-01T15:43:37.588Z,10.80
2023-02-01T15:46:43.745Z,14.30
2023-02-01T15:49:53.152Z,13.55
2023-02-01T15:52:59.320Z,14.50
2023-02-01T15:56:04.972Z,13.68
2023-02-01T15:59:18.557Z,14.35
2023-02-01T16:02:44.905Z,18.23
2023-02-01T16:05:47.341Z,18.88
2023-02-01T16:08:55.685Z,19.10
2023-02-01T16:12:08.293Z,20.98
2023-02-01T16:15:15.583Z,22.40
2023-02-01T16:18:19.874Z,25.13
2023-02-01T16:21:22.050Z,24.50
2023-02-01T16:24:27.017Z,23.40
2023-02-01T16:27:29.221Z,20.63
2023-02-01T16:30:32.412Z,10.73
2023-02-01T16:33:35.926Z,10.07
2023-02-01T16:36:38.179Z,10.65
2023-02-01T16:39:40.677Z,10.50
2023-02-01T16:42:42.922Z,11.68
2023-02-01T16:45:49.877Z,11.50
2023-02-01T16:49:01.051Z,12.15
2023-02-01T16:52:05.502Z,10.45
2023-02-01T16:55:27.993Z,9.25
2023-02-01T16:58:32.921Z,10.07
2023-02-01T17:01:35.703Z,8.65
2023-02-01T17:04:38.016Z,9.75
2023-02-01T17:07:42.160Z,5.60
2023-02-01T17:10:50.901Z,10.00
2023-02-01T17:13:54.115Z,9.43
2023-02-01T17:16:56.499Z,9.18
2023-02-01T17:19:58.893Z,5.88
2023-02-01T17:23:01.596Z,9.13
2023-02-01T17:26:04.071Z,10.68
2023-02-01T17:29:06.140Z,13.35
2023-02-01T17:32:21.683Z,12.82
2023-02-01T17:35:27.432Z,15.02
2023-02-01T17:38:29.978Z,25.55
2023-02-01T17:41:32.532Z,29.98
2023-02-01T17:44:36.397Z,30.35
2023-02-01T17:47:39.585Z,29.92
2023-02-01T17:50:42.065Z,30.30
2023-02-01T17:53:46.090Z,32.58
2023-02-01T17:56:48.861Z,35.83
2023-02-01T17:59:50.877Z,35.28
2023-02-01T18:02:53.241Z,34.72
2023-02-01T18:05:57.817Z,35.67
2023-02-01T18:08:59.887Z,35.30
2023-02-01T18:12:05.007Z,34.20
2023-02-01T18:15:33.334Z,31.85
2023-02-01T18:18:37.325Z,31.02
2023-02-01T18:21:43.487Z,28.75
2023-02-01T18:24:46.056Z,29.52
2023-02-01T18:27:49.912Z,30.40
2023-02-01T18:30:53.205Z,29.58
2023-02-01T18:33:58.538Z,30.40
2023-02-01T18:37:01.796Z,30.85
2023-02-01T18:40:04.663Z,33.55
2023-02-01T18:43:06.778Z,30.02
2023-02-01T18:46:11.356Z,30.40
2023-02-01T18:49:19.103Z,28.85
2023-02-01T18:52:21.140Z,27.63
2023-02-01T18:55:36.574Z,28.23
2023-02-01T18:58:40.481Z,26.98
2023-02-01T19:01:44.748Z,29.15
2023-02-01T19:04:55.274Z,30.63
2023-02-01T19:07:57.488Z,31.42
2023-02-01T19:11:07.438Z,31.60
2023-02-01T19:14:14.318Z,30.45
2023-02-01T19:17:16.381Z,32.42
2023-02-01T19:20:23.320Z,32.63
2023-02-01T19:23:26.825Z,32.30
2023-02-01T19:26:31.216Z,34.08
2023-02-01T19:29:34.487Z,31.35
2023-02-01T19:32:39.234Z,32.58
2023-02-01T19:35:44.731Z,33.47
2023-02-01T19:38:47.794Z,34.45
2023-02-01T19:41:51.699Z,31.45
2023-02-01T19:44:53.946Z,31.70
2023-02-01T19:47:56.564Z,32.50
2023-02-01T19:51:01.105Z,29.95
2023-02-01T19:54:04.968Z,28.40
2023-02-01T19:57:11.871Z,27.10
2023-02-01T20:00:19.640Z,30.42
2023-02-01T20:03:25.063Z,26.58
2023-02-01T20:06:33.863Z,29.15
2023-02-01T20:09:42.845Z,26.52
2023-02-01T20:12:48.982Z,28.27
2023-02-01T20:19:14.771Z,27.92
2023-02-01T20:22:18.663Z,28.55
2023-02-01T20:25:24.549Z,29.50
2023-02-01T20:28:31.548Z,36.28
2023-02-01T20:31:36.653Z,37.47
2023-02-01T20:34:40.057Z,34.10
2023-02-01T20:37:43.100Z,33.60
2023-02-01T20:40:45.624Z,32.38
2023-02-01T20:43:50.093Z,22.95
2023-02-01T20:46:53.603Z,20.67
2023-02-01T20:49:55.929Z,17.48
2023-02-01T20:53:00.431Z,17.98
2023-02-01T20:56:06.942Z,18.88
2023-02-01T20:59:10.957Z,18.83
2023-02-01T21:05:40.185Z,29.02
2023-02-01T21:08:44.459Z,27.38
2023-02-01T21:11:47.015Z,28.13
2023-02-01T21:15:00.862Z,24.13
2023-02-01T21:18:06.775Z,23.80
2023-02-01T21:21:11.969Z,25.02
2023-02-01T21:24:16.536Z,21.95
2023-02-01T21:27:19.491Z,23.77
2023-02-01T21:30:24.260Z,24.17
2023-02-01T21:33:28.611Z,22.60
2023-02-01T21:36:38.099Z,21.25
2023-02-01T21:39:45.049Z,17.95
2023-02-01T21:55:57.178Z,16.55
2023-02-01T22:02:22.038Z,14.95
2023-02-01T22:08:43.582Z,15.07
2023-02-01T22:11:47.592Z,13.32
2023-02-01T22:21:29.690Z,12.18
2023-02-01T22:31:13.104Z,12.25
2023-02-01T22:34:25.171Z,12.52
2023-02-01T22:37:29.093Z,12.63
2023-02-01T22:40:32.269Z,12.77
2023-02-01T22:46:59.508Z,10.45
2023-02-01T22:50:11.111Z,11.70
2023-02-01T22:53:17.289Z,12.52
2023-02-01T22:56:30.666Z,12.18
2023-02-01T23:09:58.247Z,10.60
2023-02-01T23:19:39.239Z,9.30
2023-02-01T23:22:47.891Z,9.50
2023-02-01T23:25:52.339Z,11.27
2023-02-01T23:28:59.891Z,10.43
2023-02-01T23:32:02.273Z,10.60
2023-02-01T23:38:31.689Z,9.68
2023-02-01T23:41:42.279Z,9.52
2023-02-01T23:51:19.807Z,9.45
2023-02-01T23:54:24.636Z,8.95
2023-02-01T23:57:31.000Z,9.02
